Time;durP1;ratioP1;P1;durP2;ratioP2;P2;SDS_P1;SDS_P2;PMS_P1;PMS_P2;Temp;Humidity;BMP_temperature;BMP_pressure;BME280_temperature;BME280_humidity;BME280_pressure;Samples;Min_cycle;Max_cycle;Signal;HPM_P1;HPM_P2
2021/06/25 00:02:03;;;;;;;15.63;12.90;;;18.30;69.60;;;;;;4926273;28;20121;-77
2021/06/25 00:04:28;;;;;;;13.80;10.02;;;18.30;69.60;;;;;;4901440;28;20025;-77
2021/06/25 00:06:54;;;;;;;10.02;8.27;;;18.30;69.40;;;;;;4940668;28;20081;-77
2021/06/25 00:09:19;;;;;;;17.75;14.10;;;18.30;69.70;;;;;;4933190;28;20043;-77
2021/06/25 00:11:45;;;;;;;17.38;13.98;;;18.20;70.00;;;;;;4898723;28;20269;-77
2021/06/25 00:14:11;;;;;;;16.27;12.20;;;18.30;70.20;;;;;;4922285;28;20039;-77
2021/06/25 00:16:36;;;;;;;26.27;17.20;;;18.10;70.50;;;;;;4938404;28;21164;-78
2021/06/25 00:19:02;;;;;;;12.57;10.90;;;18.10;70.70;;;;;;4989776;28;20033;-77
2021/06/25 00:21:27;;;;;;;12.63;11.30;;;18.10;70.60;;;;;;4933462;28;20405;-78
2021/06/25 00:23:53;;;;;;;12.70;10.93;;;18.10;70.30;;;;;;4984040;28;20106;-78
2021/06/25 00:26:18;;;;;;;16.08;11.45;;;18.10;70.90;;;;;;4919044;28;20040;-78
2021/06/25 00:28:44;;;;;;;13.75;12.18;;;18.20;71.20;;;;;;4931238;28;20027;-77
2021/06/25 00:31:09;;;;;;;18.23;12.75;;;18.10;70.30;;;;;;4931973;28;20511;-77
2021/06/25 00:33:35;;;;;;;17.40;12.95;;;18.10;71.50;;;;;;4923642;28;20031;-77
2021/06/25 00:36:01;;;;;;;18.25;13.30;;;18.20;70.20;;;;;;4910705;28;20071;-77
2021/06/25 00:38:26;;;;;;;13.07;8.65;;;18.00;70.30;;;;;;4906376;28;20085;-77
2021/06/25 00:40:52;;;;;;;14.38;11.13;;;18.00;70.90;;;;;;4892797;28;20086;-77
2021/06/25 00:43:17;;;;;;;18.08;15.18;;;18.10;71.00;;;;;;4939620;28;20113;-78
2021/06/25 00:45:43;;;;;;;11.90;10.57;;;18.10;70.60;;;;;;4918766;28;20143;-77
2021/06/25 00:48:08;;;;;;;21.08;16.77;;;18.00;70.60;;;;;;4925875;28;20126;-78
2021/06/25 00:50:35;;;;;;;16.23;13.75;;;18.10;71.60;;;;;;4918840;28;20481;-77
2021/06/25 00:53:00;;;;;;;14.68;11.75;;;18.00;70.90;;;;;;4986347;28;20063;-77
2021/06/25 00:55:27;;;;;;;21.83;18.27;;;17.90;72.00;;;;;;4914589;28;20115;-77
2021/06/25 00:57:52;;;;;;;15.57;10.82;;;17.90;71.80;;;;;;4976803;28;20040;-77
2021/06/25 01:00:18;;;;;;;21.00;16.63;;;17.90;71.50;;;;;;4985073;28;20043;-78
2021/06/25 01:02:44;;;;;;;20.23;13.85;;;17.90;71.00;;;;;;4918791;28;20459;-78
2021/06/25 01:05:10;;;;;;;15.88;12.95;;;17.90;72.00;;;;;;4897678;28;20051;-77
2021/06/25 01:07:35;;;;;;;14.32;11.82;;;17.90;72.80;;;;;;4929440;28;20038;-76
2021/06/25 01:10:02;;;;;;;14.85;13.13;;;17.80;71.60;;;;;;4935225;28;20032;-77
2021/06/25 01:12:28;;;;;;;24.80;19.65;;;17.80;72.70;;;;;;4936598;28;20034;-77
2021/06/25 01:14:53;;;;;;;18.73;14.30;;;17.70;73.90;;;;;;4936262;28;20419;-77
2021/06/25 01:17:34;;;;;;;16.92;13.63;;;17.70;73.10;;;;;;4935650;28;20575;-77
2021/06/25 01:20:03;;;;;;;15.70;12.73;;;17.60;73.50;;;;;;4919588;28;20510;-78
2021/06/25 01:22:35;;;;;;;29.80;20.63;;;17.60;73.50;;;;;;4919741;28;20036;-76
2021/06/25 01:25:10;;;;;;;22.95;17.90;;;17.50;72.80;;;;;;4912375;28;20743;-78
2021/06/25 01:27:37;;;;;;;22.67;15.98;;;17.40;73.50;;;;;;4932799;28;20402;-77
2021/06/25 01:30:03;;;;;;;29.67;21.55;;;17.40;74.80;;;;;;4985502;28;20086;-77
2021/06/25 01:32:28;;;;;;;25.63;21.48;;;17.20;73.00;;;;;;4924930;28;21503;-77
2021/06/25 01:34:54;;;;;;;28.80;21.48;;;17.00;73.50;;;;;;4938445;28;20166;-76
2021/06/25 01:37:19;;;;;;;27.30;21.15;;;17.00;75.50;;;;;;4940242;28;20085;-77
2021/06/25 01:39:47;;;;;;;25.92;20.85;;;17.00;74.10;;;;;;4975053;28;20119;-78
2021/06/25 01:42:13;;;;;;;26.25;20.80;;;16.90;75.50;;;;;;4923758;28;20166;-77
2021/06/25 01:44:38;;;;;;;27.23;21.13;;;16.80;74.20;;;;;;4897051;28;20047;-77
2021/06/25 01:47:04;;;;;;;28.98;20.40;;;16.60;77.30;;;;;;4924451;28;20062;-76
2021/06/25 01:49:29;;;;;;;27.05;20.55;;;16.60;74.30;;;;;;4928948;28;20027;-77
2021/06/25 01:51:55;;;;;;;25.67;16.30;;;16.50;74.40;;;;;;4922563;28;20122;-77
2021/06/25 01:54:21;;;;;;;22.10;16.75;;;16.40;74.20;;;;;;4936877;28;20717;-77
2021/06/25 01:56:46;;;;;;;14.52;11.30;;;16.50;73.70;;;;;;4893615;28;20443;-77
2021/06/25 01:59:12;;;;;;;14.63;12.98;;;16.50;73.70;;;;;;4916982;28;20038;-77
2021/06/25 02:01:37;;;;;;;15.45;12.02;;;16.40;73.20;;;;;;4933559;28;20499;-77
2021/06/25 02:04:03;;;;;;;21.15;13.75;;;16.30;73.40;;;;;;4983296;28;20031;-77
2021/06/25 02:06:28;;;;;;;15.73;13.52;;;16.40;74.10;;;;;;4915071;28;20029;-77
2021/06/25 02:08:54;;;;;;;17.90;12.90;;;16.40;74.50;;;;;;4940933;28;20450;-77
2021/06/25 02:11:22;;;;;;;25.92;14.18;;;16.30;74.10;;;;;;4929683;28;20031;-77
2021/06/25 02:13:47;;;;;;;21.10;17.05;;;16.30;74.80;;;;;;4920418;28;20064;-77
2021/06/25 02:16:13;;;;;;;19.92;17.63;;;16.30;75.60;;;;;;4921842;28;20039;-78
2021/06/25 02:18:38;;;;;;;17.30;10.95;;;16.20;76.00;;;;;;4893342;28;20035;-77
2021/06/25 02:21:04;;;;;;;24.13;19.25;;;16.10;75.30;;;;;;4973258;28;20036;-76
2021/06/25 02:23:30;;;;;;;19.05;14.60;;;16.10;75.10;;;;;;4899771;28;20026;-77
2021/06/25 02:25:55;;;;;;;25.60;20.17;;;16.00;75.10;;;;;;4909426;28;20051;-78
2021/06/25 02:28:21;;;;;;;15.05;13.35;;;15.80;74.80;;;;;;4899016;28;20035;-77
2021/06/25 02:30:47;;;;;;;18.73;15.75;;;15.90;76.00;;;;;;4921997;28;20044;-77
2021/06/25 02:33:12;;;;;;;25.08;17.33;;;15.90;77.30;;;;;;4923509;28;20038;-77
2021/06/25 02:35:38;;;;;;;19.50;16.60;;;15.80;76.70;;;;;;4923426;28;20036;-77
2021/06/25 02:38:03;;;;;;;16.08;14.35;;;15.80;77.20;;;;;;4981841;28;20046;-77
2021/06/25 02:43:51;;;;;;;16.20;12.70;;;15.60;75.90;;;;;;4892677;28;20051;-77
2021/06/25 02:46:16;;;;;;;23.67;16.75;;;15.50;76.60;;;;;;4912385;28;20048;-77
2021/06/25 02:48:42;;;;;;;18.17;13.40;;;15.50;77.40;;;;;;4927065;28;20038;-80
2021/06/25 02:51:07;;;;;;;21.35;16.48;;;15.60;77.70;;;;;;4972985;28;20029;-80
2021/06/25 02:53:33;;;;;;;24.88;20.30;;;15.50;78.40;;;;;;4935366;28;20039;-80
2021/06/25 02:55:58;;;;;;;15.13;12.48;;;15.40;78.60;;;;;;4935583;28;20058;-80
2021/06/25 02:58:24;;;;;;;20.67;16.40;;;15.30;77.90;;;;;;4922809;28;20070;-80
2021/06/25 03:00:50;;;;;;;19.95;15.65;;;15.30;78.60;;;;;;4933764;28;20480;-76
2021/06/25 03:03:16;;;;;;;22.52;18.45;;;15.30;78.20;;;;;;4929731;28;20296;-77
2021/06/25 03:05:42;;;;;;;17.92;14.13;;;15.20;79.80;;;;;;4947807;28;20044;-77
2021/06/25 03:08:07;;;;;;;18.48;15.50;;;15.20;79.30;;;;;;4907859;28;20036;-77
2021/06/25 03:10:33;;;;;;;23.10;17.20;;;15.30;79.40;;;;;;4988349;28;20028;-77
2021/06/25 03:12:58;;;;;;;19.02;16.52;;;15.20;79.60;;;;;;4956691;28;20030;-76
2021/06/25 03:15:24;;;;;;;18.98;15.05;;;15.00;78.80;;;;;;4909701;28;20039;-76
2021/06/25 03:17:49;;;;;;;14.05;10.35;;;15.00;79.70;;;;;;4917661;28;20500;-77
2021/06/25 03:20:15;;;;;;;23.17;16.52;;;15.10;79.90;;;;;;4924801;28;20047;-76
2021/06/25 03:22:40;;;;;;;23.45;17.83;;;15.10;80.90;;;;;;4909304;28;20032;-77
2021/06/25 03:25:06;;;;;;;22.02;18.30;;;15.00;81.10;;;;;;4899726;28;20408;-76
2021/06/25 03:27:32;;;;;;;27.45;18.38;;;14.90;81.00;;;;;;4919025;28;20507;-77
2021/06/25 03:29:57;;;;;;;21.13;16.10;;;14.90;80.60;;;;;;4927457;28;20039;-77
2021/06/25 03:32:23;;;;;;;21.15;17.02;;;14.90;81.90;;;;;;4924097;28;20038;-76
2021/06/25 03:34:49;;;;;;;21.20;17.02;;;14.90;81.60;;;;;;4973575;28;20024;-77
2021/06/25 03:37:14;;;;;;;19.30;14.70;;;14.90;81.80;;;;;;4947612;28;20040;-77
2021/06/25 03:39:40;;;;;;;20.23;14.88;;;14.80;82.20;;;;;;4909734;28;20043;-76
2021/06/25 03:42:06;;;;;;;18.65;15.98;;;14.80;82.60;;;;;;4893927;28;20024;-77
2021/06/25 03:44:31;;;;;;;16.30;13.07;;;14.70;82.30;;;;;;4905495;28;20089;-76
2021/06/25 03:46:57;;;;;;;22.23;14.98;;;14.60;83.20;;;;;;4906602;28;20044;-76
2021/06/25 03:49:22;;;;;;;22.42;16.02;;;14.50;83.50;;;;;;4913169;28;20038;-77
2021/06/25 03:51:48;;;;;;;31.98;22.33;;;14.60;85.10;;;;;;4934367;28;20039;-76
2021/06/25 03:54:13;;;;;;;27.75;18.63;;;14.60;84.50;;;;;;4967109;28;20138;-76
2021/06/25 03:56:39;;;;;;;19.25;15.25;;;14.60;84.10;;;;;;4898940;28;20089;-76
2021/06/25 03:59:04;;;;;;;20.08;14.43;;;14.60;84.10;;;;;;4923767;28;20143;-76
2021/06/25 04:01:30;;;;;;;14.32;11.90;;;14.60;83.60;;;;;;4921327;28;20028;-76
2021/06/25 04:03:56;;;;;;;26.25;21.77;;;14.60;83.30;;;;;;4926209;28;20048;-76
2021/06/25 04:06:21;;;;;;;23.80;16.92;;;14.70;83.80;;;;;;4944914;28;20035;-76
2021/06/25 04:08:49;;;;;;;23.63;17.15;;;14.70;84.70;;;;;;4975444;28;20028;-77
2021/06/25 04:11:14;;;;;;;17.58;12.75;;;14.60;84.40;;;;;;4987777;28;20043;-76
2021/06/25 04:13:40;;;;;;;13.73;11.82;;;14.60;84.90;;;;;;4971819;28;20032;-76
2021/06/25 04:16:05;;;;;;;24.02;17.95;;;14.60;84.50;;;;;;4942525;28;20131;-76
2021/06/25 04:18:31;;;;;;;19.00;13.40;;;14.70;85.50;;;;;;4935763;28;20570;-77
2021/06/25 04:20:57;;;;;;;26.70;19.80;;;14.70;84.10;;;;;;4914728;28;20079;-76
2021/06/25 04:23:23;;;;;;;19.58;15.07;;;14.80;85.20;;;;;;4922751;28;20056;-76
2021/06/25 04:25:48;;;;;;;20.60;16.10;;;14.60;85.40;;;;;;4971674;28;20056;-76
2021/06/25 04:28:14;;;;;;;25.02;15.82;;;14.70;85.00;;;;;;4975307;28;20074;-76
2021/06/25 04:30:41;;;;;;;18.35;14.45;;;14.70;85.30;;;;;;4984992;28;20098;-76
2021/06/25 04:33:09;;;;;;;22.23;18.35;;;14.90;84.90;;;;;;4934125;28;20048;-76
2021/06/25 04:35:35;;;;;;;16.08;13.07;;;14.90;84.10;;;;;;4940440;28;20043;-77
2021/06/25 04:38:03;;;;;;;21.70;17.08;;;14.80;84.10;;;;;;4951369;28;20086;-76
2021/06/25 04:40:32;;;;;;;21.85;16.42;;;14.90;84.50;;;;;;4899656;28;20456;-76
2021/06/25 04:42:57;;;;;;;18.17;14.00;;;14.90;85.00;;;;;;4943789;28;20110;-76
2021/06/25 04:45:23;;;;;;;23.15;17.20;;;14.90;84.60;;;;;;4922541;28;20036;-76
2021/06/25 04:47:49;;;;;;;17.73;12.10;;;15.00;84.40;;;;;;4924243;29;20035;-76
2021/06/25 04:50:14;;;;;;;17.30;14.05;;;15.10;84.30;;;;;;4955443;28;20059;-76
2021/06/25 04:52:40;;;;;;;17.08;13.30;;;15.20;84.10;;;;;;4987698;28;20032;-76
2021/06/25 04:55:07;;;;;;;14.30;10.60;;;15.30;83.40;;;;;;4908489;28;20051;-76
2021/06/25 04:57:32;;;;;;;17.52;14.48;;;15.50;83.10;;;;;;4976093;28;20544;-77
2021/06/25 04:59:58;;;;;;;18.05;13.40;;;15.70;83.10;;;;;;4919168;28;20036;-77
2021/06/25 05:02:23;;;;;;;17.38;14.77;;;15.80;82.70;;;;;;4937216;28;20058;-76
2021/06/25 05:04:49;;;;;;;24.40;19.77;;;15.90;83.50;;;;;;4904429;28;20055;-76
2021/06/25 05:07:15;;;;;;;16.20;12.10;;;16.10;83.20;;;;;;4946193;28;20036;-77
2021/06/25 05:09:41;;;;;;;14.90;12.07;;;16.20;81.10;;;;;;4922565;28;20449;-78
2021/06/25 05:12:07;;;;;;;18.00;13.07;;;16.30;81.10;;;;;;4907532;28;20484;-76
2021/06/25 05:14:32;;;;;;;22.33;16.08;;;16.30;81.30;;;;;;4924541;28;20031;-77
2021/06/25 05:16:58;;;;;;;17.00;14.27;;;16.40;81.60;;;;;;4919644;28;20090;-76
2021/06/25 05:19:23;;;;;;;15.35;13.38;;;16.40;81.10;;;;;;4914994;28;20043;-76
2021/06/25 05:21:49;;;;;;;16.33;12.98;;;16.40;81.30;;;;;;4905588;28;20082;-77
2021/06/25 05:24:14;;;;;;;17.88;13.63;;;16.50;81.10;;;;;;4908376;28;20040;-76
2021/06/25 05:26:40;;;;;;;17.75;13.27;;;16.40;81.60;;;;;;4993763;28;20028;-77
2021/06/25 05:29:06;;;;;;;16.83;14.57;;;16.50;81.60;;;;;;4908754;28;20028;-77
2021/06/25 05:31:31;;;;;;;18.60;12.70;;;16.50;81.80;;;;;;4910016;28;20034;-79
2021/06/25 05:33:57;;;;;;;17.65;12.40;;;16.70;80.70;;;;;;4915389;28;20098;-77
2021/06/25 05:36:23;;;;;;;20.23;15.25;;;16.80;80.60;;;;;;4915425;28;20081;-77
2021/06/25 05:38:48;;;;;;;19.75;12.85;;;16.90;80.80;;;;;;4912387;28;20036;-77
2021/06/25 05:41:14;;;;;;;16.85;13.20;;;17.10;81.00;;;;;;4932597;28;20454;-77
2021/06/25 05:43:41;;;;;;;17.00;12.60;;;17.30;79.40;;;;;;4892945;28;20399;-78
2021/06/25 05:46:07;;;;;;;17.67;12.95;;;17.40;78.50;;;;;;4919630;28;20034;-78
2021/06/25 05:48:33;;;;;;;17.30;13.00;;;17.40;78.70;;;;;;4989353;28;20030;-77
2021/06/25 05:50:58;;;;;;;24.25;16.20;;;17.40;78.60;;;;;;4906816;28;20086;-78
2021/06/25 05:53:25;;;;;;;24.05;17.30;;;17.90;80.10;;;;;;4935906;28;20032;-77
2021/06/25 05:55:50;;;;;;;24.48;16.10;;;18.20;78.00;;;;;;4941015;28;20065;-77
2021/06/25 05:58:16;;;;;;;21.75;14.65;;;18.80;80.90;;;;;;4919360;28;20102;-79
2021/06/25 06:00:42;;;;;;;22.42;15.70;;;19.10;77.90;;;;;;4940659;28;20028;-77
2021/06/25 06:03:07;;;;;;;19.05;13.30;;;19.20;79.10;;;;;;4930827;28;20043;-77
2021/06/25 06:05:33;;;;;;;25.17;17.00;;;19.60;76.10;;;;;;4986878;28;20511;-77
2021/06/25 06:07:58;;;;;;;22.98;16.33;;;19.30;75.40;;;;;;4910288;28;20123;-78
2021/06/25 06:10:24;;;;;;;22.38;16.80;;;18.70;75.40;;;;;;4918471;28;20371;-77
2021/06/25 06:12:49;;;;;;;27.15;15.77;;;19.10;73.50;;;;;;4985242;28;20028;-77
2021/06/25 06:15:18;;;;;;;22.90;16.33;;;19.20;73.90;;;;;;4925272;28;20416;-78
2021/06/25 06:17:47;;;;;;;24.13;17.17;;;20.00;78.90;;;;;;4907644;28;20028;-78
2021/06/25 06:20:17;;;;;;;27.20;16.00;;;21.10;77.70;;;;;;4890698;28;20449;-77
2021/06/25 06:36:10;;;;;;;14.75;10.93;;;21.60;63.70;;;;;;4937738;28;20055;-79
2021/06/25 06:38:36;;;;;;;19.17;12.05;;;21.70;65.60;;;;;;4928330;28;20240;-79
2021/06/25 06:41:02;;;;;;;14.02;10.27;;;21.40;69.40;;;;;;4906072;28;20480;-79
2021/06/25 06:43:27;;;;;;;18.73;12.75;;;22.40;69.30;;;;;;4921365;28;20046;-79
2021/06/25 06:45:53;;;;;;;22.42;14.77;;;22.60;67.50;;;;;;4905900;28;20032;-78
2021/06/25 06:48:18;;;;;;;16.30;11.73;;;22.10;64.10;;;;;;4988765;28;20069;-78
2021/06/25 06:50:44;;;;;;;18.00;12.13;;;20.90;65.20;;;;;;4920911;28;20037;-78
2021/06/25 06:53:09;;;;;;;15.57;11.63;;;21.30;65.30;;;;;;4970266;28;20062;-78
2021/06/25 06:55:42;;;;;;;19.05;12.63;;;21.30;63.40;;;;;;4923230;28;20112;-79
2021/06/25 06:58:11;;;;;;;16.10;11.02;;;21.60;63.70;;;;;;4922868;28;20030;-78
2021/06/25 07:00:37;;;;;;;11.45;9.13;;;21.70;63.90;;;;;;4948365;28;20031;-80
2021/06/25 07:03:03;;;;;;;11.38;6.68;;;22.10;61.30;;;;;;4951617;28;20032;-79
2021/06/25 07:05:29;;;;;;;12.45;8.93;;;22.20;65.40;;;;;;4962243;28;20124;-79
2021/06/25 07:07:54;;;;;;;13.05;8.68;;;22.50;63.30;;;;;;4930601;28;20036;-79
2021/06/25 07:10:20;;;;;;;9.95;8.00;;;23.30;61.60;;;;;;4916951;28;20032;-80
2021/06/25 07:12:45;;;;;;;15.10;10.73;;;23.20;60.60;;;;;;4932696;28;20028;-79
2021/06/25 07:15:11;;;;;;;15.32;10.60;;;23.40;63.80;;;;;;4982569;28;20035;-79
2021/06/25 07:17:37;;;;;;;13.18;9.25;;;23.80;61.90;;;;;;4915162;28;20495;-80
2021/06/25 07:20:04;;;;;;;14.10;9.52;;;23.50;61.90;;;;;;4909375;28;20058;-79
2021/06/25 07:22:30;;;;;;;14.50;10.57;;;24.00;61.80;;;;;;4917510;28;20043;-79
2021/06/25 07:24:55;;;;;;;17.75;9.88;;;24.00;62.50;;;;;;4898849;28;20524;-80
2021/06/25 07:27:21;;;;;;;14.40;9.32;;;24.30;58.30;;;;;;4917086;28;20036;-81
2021/06/25 07:29:46;;;;;;;14.45;11.88;;;23.90;60.70;;;;;;4982818;28;20063;-80
2021/06/25 07:32:12;;;;;;;20.42;13.25;;;24.30;60.50;;;;;;4919823;28;20039;-80
2021/06/25 07:34:37;;;;;;;14.75;9.77;;;25.00;60.60;;;;;;4954844;28;20024;-80
2021/06/25 07:37:03;;;;;;;17.95;11.13;;;25.40;57.60;;;;;;4917036;28;20051;-80
2021/06/25 07:39:29;;;;;;;13.35;10.98;;;25.60;60.50;;;;;;4927283;28;20375;-80
2021/06/25 07:41:55;;;;;;;18.38;10.68;;;25.60;59.00;;;;;;4934001;28;20111;-80
2021/06/25 07:44:21;;;;;;;17.50;13.18;;;25.10;55.00;;;;;;4936136;28;20539;-80
2021/06/25 07:46:46;;;;;;;16.02;10.50;;;25.90;58.80;;;;;;4906994;28;20022;-81
2021/06/25 07:49:12;;;;;;;17.52;12.73;;;25.00;54.60;;;;;;4972430;28;20036;-81
2021/06/25 07:51:37;;;;;;;15.48;9.98;;;25.60;59.40;;;;;;4927920;28;20023;-80
2021/06/25 07:54:03;;;;;;;18.55;14.10;;;25.90;55.30;;;;;;4934813;28;20119;-80
2021/06/25 07:56:29;;;;;;;14.27;11.73;;;26.70;58.20;;;;;;4953093;28;20292;-81
2021/06/25 07:58:55;;;;;;;16.02;11.32;;;26.90;56.30;;;;;;4925344;28;20078;-81
2021/06/25 08:01:23;;;;;;;12.35;9.23;;;27.20;54.90;;;;;;4906334;28;20024;-81
2021/06/25 08:03:49;;;;;;;11.07;7.45;;;27.20;54.30;;;;;;4920406;28;20057;-80
2021/06/25 08:06:14;;;;;;;10.48;8.43;;;27.20;53.20;;;;;;4925425;28;20427;-81
2021/06/25 08:08:40;;;;;;;12.93;10.43;;;27.00;54.10;;;;;;4982086;28;20035;-82
2021/06/25 08:11:05;;;;;;;12.07;8.63;;;27.10;54.10;;;;;;4894545;28;20028;-82
2021/06/25 08:13:31;;;;;;;11.70;7.93;;;27.40;53.50;;;;;;4895634;28;20441;-82
2021/06/25 08:15:57;;;;;;;16.55;9.90;;;26.80;53.40;;;;;;4893801;28;20456;-82
2021/06/25 08:18:22;;;;;;;14.52;7.95;;;27.10;53.70;;;;;;4919614;28;20511;-82
2021/06/25 08:20:48;;;;;;;16.30;10.30;;;27.20;52.40;;;;;;4903773;28;20482;-82
2021/06/25 08:23:13;;;;;;;12.85;9.50;;;27.30;52.80;;;;;;4906224;28;20031;-83
2021/06/25 08:25:39;;;;;;;11.55;8.13;;;27.50;52.50;;;;;;4975896;28;20067;-83
2021/06/25 08:28:05;;;;;;;15.73;11.38;;;27.60;51.10;;;;;;4917088;28;20036;-84
2021/06/25 08:30:30;;;;;;;12.52;8.65;;;27.80;52.60;;;;;;4948379;28;20099;-83
2021/06/25 08:32:57;;;;;;;12.82;8.38;;;28.30;51.70;;;;;;4976236;28;20038;-83
2021/06/25 08:35:23;;;;;;;13.23;9.60;;;28.60;51.90;;;;;;4911157;28;20027;-82
2021/06/25 08:37:52;;;;;;;13.48;8.55;;;28.60;51.90;;;;;;4891735;28;20052;-82
2021/06/25 08:40:18;;;;;;;11.77;8.30;;;29.00;50.80;;;;;;4927260;28;20044;-81
2021/06/25 08:42:44;;;;;;;10.07;7.32;;;29.00;50.20;;;;;;4960368;28;20448;-81
2021/06/25 08:45:11;;;;;;;13.13;9.23;;;28.80;50.40;;;;;;4914315;28;20531;-81
2021/06/25 08:47:42;;;;;;;18.27;11.27;;;28.90;50.30;;;;;;4937313;28;20504;-83
2021/06/25 08:50:09;;;;;;;12.70;8.38;;;29.30;49.90;;;;;;4910355;28;20043;-81
2021/06/25 08:52:35;;;;;;;11.75;9.98;;;29.10;49.70;;;;;;4930808;28;20055;-80
2021/06/25 08:55:01;;;;;;;13.73;8.52;;;28.30;52.10;;;;;;4945178;28;20063;-80
2021/06/25 08:57:27;;;;;;;13.25;9.00;;;28.70;52.60;;;;;;4910423;28;20043;-80
2021/06/25 08:59:52;;;;;;;9.35;6.93;;;29.20;51.20;;;;;;4939062;28;20058;-80
2021/06/25 09:02:18;;;;;;;10.18;7.18;;;29.80;49.80;;;;;;4935156;28;20047;-79
2021/06/25 09:04:46;;;;;;;9.35;8.15;;;30.10;48.30;;;;;;4981949;28;20067;-79
2021/06/25 09:07:12;;;;;;;11.85;7.90;;;29.90;49.10;;;;;;4924355;28;20062;-80
2021/06/25 09:09:42;;;;;;;9.55;8.55;;;30.10;49.40;;;;;;4993853;28;20377;-80
2021/06/25 09:12:22;;;;;;;9.52;8.18;;;30.00;50.20;;;;;;4922432;28;20119;-80
2021/06/25 09:15:15;;;;;;;12.23;8.73;;;30.30;49.50;;;;;;4913710;28;20039;-79
2021/06/25 09:18:03;;;;;;;10.13;8.32;;;30.80;47.50;;;;;;4926499;28;20036;-78
2021/06/25 09:20:39;;;;;;;8.43;7.40;;;30.70;46.40;;;;;;4980549;28;20036;-78
2021/06/25 09:23:14;;;;;;;10.48;8.00;;;30.80;46.60;;;;;;4949240;28;20099;-78
2021/06/25 09:25:49;;;;;;;;;;;31.10;46.10;;;;;;4925844;28;20063;-79
2021/06/25 09:28:28;;;;;;;11.00;8.80;;;30.60;46.80;;;;;;4920396;28;20343;-78
2021/06/25 09:30:54;;;;;;;12.80;9.75;;;31.40;45.70;;;;;;4923129;28;20039;-81
2021/06/25 09:33:19;;;;;;;13.85;8.48;;;31.80;44.70;;;;;;4924939;28;20036;-79
2021/06/25 09:35:55;;;;;;;12.43;9.95;;;32.00;44.40;;;;;;4975299;28;20031;-79
2021/06/25 09:38:39;;;;;;;16.08;11.90;;;32.10;45.10;;;;;;4953695;28;20103;-79
2021/06/25 09:41:21;;;;;;;12.25;7.57;;;32.00;44.20;;;;;;4924543;28;20031;-78
2021/06/25 09:44:16;;;;;;;9.02;8.13;;;31.70;44.00;;;;;;4916317;28;21226;-79
2021/06/25 09:46:42;;;;;;;10.27;7.85;;;30.30;44.60;;;;;;4929979;28;20336;-79
2021/06/25 09:49:10;;;;;;;9.60;6.82;;;30.60;45.60;;;;;;4922758;28;20033;-79
2021/06/25 09:51:36;;;;;;;13.05;8.27;;;31.10;45.60;;;;;;4932783;28;20029;-78
2021/06/25 09:54:15;;;;;;;8.90;7.40;;;31.40;43.90;;;;;;4938291;28;20028;-79
2021/06/25 09:56:49;;;;;;;11.55;9.10;;;31.60;44.00;;;;;;4989250;28;20065;-78
2021/06/25 10:02:25;;;;;;;12.90;9.93;;;30.60;44.40;;;;;;4929858;28;20665;-80
2021/06/25 10:04:58;;;;;;;9.43;7.72;;;30.40;45.70;;;;;;4914266;28;20056;-78
2021/06/25 10:07:30;;;;;;;10.93;8.10;;;31.10;44.70;;;;;;4933791;28;20449;-78
2021/06/25 10:10:02;;;;;;;11.15;9.05;;;31.40;44.60;;;;;;4976158;28;20504;-78
2021/06/25 10:12:28;;;;;;;12.45;9.30;;;31.50;43.90;;;;;;4932889;28;20520;-79
2021/06/25 10:14:53;;;;;;;12.50;10.68;;;31.30;43.90;;;;;;4906054;28;20027;-78
2021/06/25 10:17:19;;;;;;;14.18;8.63;;;30.10;45.90;;;;;;4905037;28;20032;-78
2021/06/25 10:19:48;;;;;;;10.68;8.82;;;30.80;44.70;;;;;;4900288;28;20036;-80
2021/06/25 10:22:19;;;;;;;13.77;9.88;;;31.00;44.80;;;;;;4990381;28;20485;-78
2021/06/25 10:24:48;;;;;;;10.82;8.60;;;31.00;45.30;;;;;;4898778;28;20102;-79
2021/06/25 10:27:13;;;;;;;8.77;7.55;;;31.20;44.80;;;;;;4997342;28;20036;-79
2021/06/25 10:29:39;;;;;;;11.50;8.65;;;31.10;44.30;;;;;;4893855;28;20039;-79
2021/06/25 10:32:10;;;;;;;13.48;8.43;;;31.00;44.40;;;;;;4920336;28;20044;-79
2021/06/25 10:34:39;;;;;;;8.95;8.05;;;31.10;43.80;;;;;;5001896;28;20389;-78
2021/06/25 10:37:07;;;;;;;9.55;8.20;;;31.00;44.10;;;;;;4936334;28;20550;-79
2021/06/25 10:39:33;;;;;;;19.45;11.80;;;31.10;43.50;;;;;;4915715;28;20078;-78
2021/06/25 10:41:59;;;;;;;12.10;8.48;;;31.30;43.10;;;;;;4909742;28;20083;-79
2021/06/25 10:44:53;;;;;;;11.02;9.02;;;31.30;43.10;;;;;;4925687;28;20032;-80
2021/06/25 10:47:29;;;;;;;10.63;7.47;;;31.40;42.70;;;;;;4921332;28;20495;-80
2021/06/25 10:50:05;;;;;;;9.57;7.22;;;31.30;43.70;;;;;;4910831;28;20035;-81
2021/06/25 10:52:40;;;;;;;;;;;31.20;43.80;;;;;;4917737;28;20031;-79
2021/06/25 10:55:12;;;;;;;10.88;9.00;;;31.10;43.90;;;;;;4942887;28;20291;-79
2021/06/25 10:57:50;;;;;;;9.48;8.45;;;31.20;42.90;;;;;;4925606;28;20099;-79
2021/06/25 11:00:28;;;;;;;9.98;7.53;;;31.30;43.00;;;;;;4926387;28;20606;-80
2021/06/25 11:02:54;;;;;;;7.82;7.03;;;31.20;42.90;;;;;;4929912;28;20030;-79
2021/06/25 11:05:25;;;;;;;8.18;7.38;;;30.80;42.80;;;;;;4984479;28;20044;-79
2021/06/25 11:07:52;;;;;;;10.32;7.75;;;30.00;42.40;;;;;;4933415;28;20031;-79
2021/06/25 11:10:21;;;;;;;11.13;7.13;;;30.00;43.70;;;;;;4938462;28;20514;-79
2021/06/25 11:12:47;;;;;;;11.05;7.35;;;30.50;43.40;;;;;;4972718;28;20516;-80
2021/06/25 11:15:12;;;;;;;8.38;7.35;;;31.40;42.30;;;;;;4919364;28;20047;-79
2021/06/25 11:17:53;;;;;;;10.70;6.70;;;31.50;40.90;;;;;;4922170;28;20155;-79
2021/06/25 11:20:26;;;;;;;9.60;7.13;;;31.40;41.60;;;;;;4923663;28;20404;-79
2021/06/25 11:23:03;;;;;;;10.40;7.65;;;32.10;41.70;;;;;;4915808;28;20393;-79
2021/06/25 11:25:45;;;;;;;9.93;7.28;;;30.90;40.60;;;;;;4583595;28;9999743;-79
2021/06/25 11:28:24;;;;;;;10.00;7.75;;;30.60;41.90;;;;;;4998824;28;20040;-79
2021/06/25 11:30:54;;;;;;;8.85;6.85;;;31.30;43.10;;;;;;4903542;28;20044;-79
2021/06/25 11:34:00;;;;;;;8.15;6.88;;;32.10;41.30;;;;;;4916394;28;20093;-79
2021/06/25 11:36:39;;;;;;;8.68;5.47;;;32.30;40.20;;;;;;4930462;28;20496;-79
2021/06/25 11:39:10;;;;;;;10.65;8.20;;;32.50;39.40;;;;;;4903149;28;20028;-79
2021/06/25 11:41:54;;;;;;;8.00;7.30;;;32.50;39.90;;;;;;4937129;28;20050;-79
2021/06/25 11:44:35;;;;;;;10.45;7.75;;;32.20;40.60;;;;;;4919965;28;20044;-79
2021/06/25 11:47:10;;;;;;;12.25;8.10;;;31.40;40.80;;;;;;4916326;28;20082;-79
2021/06/25 11:49:41;;;;;;;13.77;8.25;;;31.50;40.00;;;;;;4933716;28;20408;-79
2021/06/25 11:52:17;;;;;;;13.23;8.00;;;31.60;40.30;;;;;;4932048;28;20037;-79
2021/06/25 11:54:45;;;;;;;8.65;7.75;;;32.30;42.00;;;;;;4941840;28;20034;-79
2021/06/25 11:57:17;;;;;;;10.65;9.23;;;32.80;39.10;;;;;;4923158;28;20094;-79
2021/06/25 11:59:57;;;;;;;9.98;7.30;;;33.50;40.40;;;;;;4927392;28;20028;-79
2021/06/25 12:02:22;;;;;;;8.05;7.25;;;33.60;39.70;;;;;;4926586;28;20024;-78
2021/06/25 12:04:48;;;;;;;9.90;8.25;;;33.30;39.60;;;;;;4943069;28;20438;-78
2021/06/25 12:07:15;;;;;;;9.55;8.45;;;33.40;38.60;;;;;;4906004;28;20134;-79
2021/06/25 12:09:41;;;;;;;8.32;7.53;;;33.90;39.30;;;;;;4973653;28;20066;-79
2021/06/25 12:12:08;;;;;;;12.18;9.45;;;34.40;38.30;;;;;;4918942;28;20511;-79
2021/06/25 12:14:56;;;;;;;10.43;8.73;;;34.40;37.80;;;;;;4939529;28;20113;-78
2021/06/25 12:17:22;;;;;;;10.55;8.35;;;34.00;39.20;;;;;;4901248;28;20228;-78
2021/06/25 12:20:05;;;;;;;10.43;8.40;;;33.90;36.10;;;;;;4887992;28;20221;-78
2021/06/25 12:22:30;;;;;;;10.60;8.02;;;34.60;38.30;;;;;;4981226;28;20044;-78
2021/06/25 12:24:57;;;;;;;10.88;8.52;;;35.20;37.30;;;;;;4941361;28;20048;-79
2021/06/25 12:27:35;;;;;;;9.82;8.45;;;35.50;36.70;;;;;;4922563;28;20028;-79
2021/06/25 12:30:03;;;;;;;11.02;8.85;;;35.70;36.70;;;;;;4890751;28;20078;-78
2021/06/25 12:32:29;;;;;;;7.95;7.15;;;34.00;36.10;;;;;;4916575;28;20029;-78
2021/06/25 12:34:56;;;;;;;12.68;10.05;;;34.60;37.80;;;;;;4980764;28;20099;-79
2021/06/25 12:37:22;;;;;;;12.45;7.68;;;35.10;37.80;;;;;;4983820;28;20041;-78
2021/06/25 12:39:47;;;;;;;10.63;7.18;;;35.40;36.50;;;;;;4937729;28;20024;-78
2021/06/25 12:42:20;;;;;;;8.30;6.78;;;35.60;35.00;;;;;;4991126;28;20114;-78
2021/06/25 12:44:46;;;;;;;13.30;11.90;;;35.80;35.20;;;;;;4945709;28;20451;-78
2021/06/25 12:47:12;;;;;;;11.07;9.70;;;36.30;33.80;;;;;;4970495;28;20032;-78
2021/06/25 12:49:37;;;;;;;11.70;8.57;;;35.70;33.70;;;;;;4941807;28;20050;-78
2021/06/25 12:52:25;;;;;;;9.57;8.43;;;35.30;36.00;;;;;;4974447;28;20055;-78
2021/06/25 12:54:50;;;;;;;11.23;9.10;;;36.40;35.20;;;;;;4919966;28;20451;-78
2021/06/25 12:57:17;;;;;;;8.52;7.30;;;35.70;33.80;;;;;;4927893;28;20075;-78